Time;durP1;ratioP1;P1;durP2;ratioP2;P2;SDS_P1;SDS_P2;PMS_P1;PMS_P2;Temp;Humidity;BMP_temperature;BMP_pressure;BME280_temperature;BME280_humidity;BME280_pressure;Samples;Min_cycle;Max_cycle;Signal;HPM_P1;HPM_P2
2022/01/25 00:09:21;;;;;;;10.95;9.80;;;;;21.40;102236.00;;;;2068078;28;20641;-66
2022/01/25 00:15:03;;;;;;;10.90;9.85;;;;;21.30;102236.00;;;;2068977;28;20213;-66
2022/01/25 00:25:42;;;;;;;10.05;9.15;;;;;21.30;102261.00;;;;2065435;28;20214;-66
2022/01/25 00:26:35;;;;;;;9.45;8.60;;;;;21.30;102256.00;;;;2066173;28;20683;-65
2022/01/25 00:27:48;;;;;;;10.65;9.65;;;;;21.20;102258.00;;;;2064614;28;20226;-66
2022/01/25 00:28:52;;;;;;;10.40;9.50;;;;;21.20;102252.00;;;;2068185;28;20742;-66
2022/01/25 00:30:21;;;;;;;9.90;9.10;;;;;21.20;102258.00;;;;2067508;28;20261;-66
2022/01/25 00:31:17;;;;;;;12.60;10.10;;;;;21.20;102251.00;;;;2063716;28;20210;-66
2022/01/25 00:32:18;;;;;;;11.00;8.98;;;;;21.20;102259.00;;;;2067619;28;20253;-66
2022/01/25 00:33:18;;;;;;;11.07;9.80;;;;;21.20;102263.00;;;;2070118;28;20668;-66
2022/01/25 00:34:18;;;;;;;13.20;9.50;;;;;21.20;102251.00;;;;2070278;28;20548;-66
2022/01/25 00:35:19;;;;;;;10.97;8.63;;;;;21.20;102250.00;;;;2069476;28;20210;-66
2022/01/25 00:36:21;;;;;;;8.70;7.90;;;;;21.20;102250.00;;;;2068189;28;20675;-66
2022/01/25 00:37:22;;;;;;;9.95;8.65;;;;;21.20;102257.00;;;;2068556;28;20693;-66
2022/01/25 00:38:22;;;;;;;9.40;8.60;;;;;21.20;102259.00;;;;2068313;28;20268;-66
2022/01/25 00:39:23;;;;;;;9.47;8.63;;;;;21.10;102254.00;;;;2067133;28;20234;-66
2022/01/25 00:40:23;;;;;;;9.90;9.00;;;;;21.10;102251.00;;;;2067298;28;20316;-66
2022/01/25 00:41:23;;;;;;;9.67;8.10;;;;;21.10;102253.00;;;;2067942;28;20239;-66
2022/01/25 00:42:24;;;;;;;9.70;8.80;;;;;21.20;102246.00;;;;2068558;28;20272;-66
2022/01/25 00:43:26;;;;;;;10.10;9.20;;;;;21.20;102243.00;;;;2068971;28;20222;-66
2022/01/25 00:44:30;;;;;;;9.77;8.57;;;;;21.20;102243.00;;;;2068933;28;20587;-66
2022/01/25 00:45:31;;;;;;;9.38;7.63;;;;;21.10;102247.00;;;;2068657;28;20238;-66
2022/01/25 00:46:31;;;;;;;9.00;8.20;;;;;21.10;102191.00;;;;2068150;28;20674;-66
2022/01/25 00:47:32;;;;;;;9.80;8.67;;;;;21.10;102250.00;;;;2067791;28;20218;-66
2022/01/25 00:49:40;;;;;;;8.82;8.02;;;;;21.10;102251.00;;;;2068710;28;20276;-66
2022/01/25 00:50:42;;;;;;;8.68;7.88;;;;;21.10;102246.00;;;;2068583;28;21004;-66
2022/01/25 00:54:58;;;;;;;9.85;8.95;;;;;21.10;102245.00;;;;2068197;28;20246;-66
2022/01/25 00:55:59;;;;;;;9.45;8.45;;;;;21.10;102248.00;;;;2064679;28;20214;-65
2022/01/25 00:56:59;;;;;;;10.13;9.23;;;;;21.10;102250.00;;;;2067310;28;20214;-66
2022/01/25 00:58:00;;;;;;;9.33;8.43;;;;;21.10;102253.00;;;;2066523;28;20219;-66
2022/01/25 00:59:05;;;;;;;9.03;8.03;;;;;21.10;102252.00;;;;2067418;28;20226;-66
2022/01/25 01:00:07;;;;;;;9.30;8.50;;;;;21.10;102241.00;;;;2060484;28;20454;-65
2022/01/25 01:01:08;;;;;;;9.05;8.27;;;;;21.10;102249.00;;;;2067869;28;20336;-65
2022/01/25 01:02:12;;;;;;;8.43;7.63;;;;;21.10;102242.00;;;;2067705;28;20693;-65
2022/01/25 01:03:12;;;;;;;9.02;8.23;;;;;21.00;102253.00;;;;2064701;28;20202;-66
2022/01/25 01:04:12;;;;;;;8.63;7.90;;;;;21.00;102249.00;;;;2068055;28;20662;-65
2022/01/25 01:05:13;;;;;;;9.20;8.40;;;;;21.00;102250.00;;;;2067914;28;20207;-66
2022/01/25 01:06:14;;;;;;;8.67;7.87;;;;;21.00;102256.00;;;;2067311;28;20204;-65
2022/01/25 01:07:16;;;;;;;8.55;6.97;;;;;21.00;102246.00;;;;2067880;28;20781;-66
2022/01/25 01:08:16;;;;;;;9.50;8.70;;;;;21.00;102248.00;;;;2068631;28;20215;-66
2022/01/25 01:09:18;;;;;;;8.20;7.50;;;;;21.00;102252.00;;;;2068671;28;20206;-66
2022/01/25 01:10:21;;;;;;;8.57;7.85;;;;;21.00;102249.00;;;;2068220;28;20207;-66
2022/01/25 01:11:30;;;;;;;8.15;7.32;;;;;21.00;102247.00;;;;2067853;28;20202;-66
2022/01/25 01:13:55;;;;;;;9.35;8.55;;;;;21.00;102244.00;;;;2068564;28;20305;-66
2022/01/25 01:15:24;;;;;;;7.85;7.20;;;;;21.00;102242.00;;;;2064615;28;20709;-66
2022/01/25 01:30:17;;;;;;;9.13;8.27;;;;;20.90;102233.00;;;;2063807;28;20318;-66
2022/01/25 01:37:24;;;;;;;7.93;7.32;;;;;20.90;102238.00;;;;2064842;28;20299;-65
2022/01/25 01:39:57;;;;;;;8.35;7.60;;;;;20.90;102241.00;;;;2067200;28;20210;-65
2022/01/25 01:41:17;;;;;;;8.82;7.60;;;;;20.90;102236.00;;;;2065067;28;20214;-66
2022/01/25 01:44:39;;;;;;;7.83;7.23;;;;;20.90;102232.00;;;;2068102;28;20222;-66
2022/01/25 01:48:06;;;;;;;8.85;7.45;;;;;20.90;102231.00;;;;2067662;28;20700;-66
2022/01/25 01:49:07;;;;;;;8.25;7.50;;;;;20.90;102225.00;;;;2064038;28;20221;-66
2022/01/25 01:50:12;;;;;;;8.60;7.80;;;;;20.90;102231.00;;;;2067449;28;20206;-66
2022/01/25 01:51:28;;;;;;;8.30;7.60;;;;;20.90;102230.00;;;;2066984;28;20214;-65
2022/01/25 01:52:29;;;;;;;7.70;7.00;;;;;20.80;102227.00;;;;2065907;28;20206;-66
2022/01/25 01:53:30;;;;;;;8.65;7.90;;;;;20.80;102226.00;;;;2067643;28;20214;-66
2022/01/25 01:54:30;;;;;;;7.33;6.73;;;;;20.80;102226.00;;;;2068392;28;20226;-66
2022/01/25 01:55:30;;;;;;;8.53;7.50;;;;;20.80;102233.00;;;;2067482;28;20211;-66
2022/01/25 01:56:31;;;;;;;8.30;7.50;;;;;20.80;102233.00;;;;2068263;28;20214;-66
2022/01/25 01:57:31;;;;;;;7.93;7.23;;;;;20.80;102234.00;;;;2067619;28;24859;-66
2022/01/25 01:58:34;;;;;;;8.80;8.00;;;;;20.80;102239.00;;;;2063244;28;20230;-66
2022/01/25 01:59:34;;;;;;;7.28;6.68;;;;;20.80;102233.00;;;;2067420;28;20244;-66
2022/01/25 02:00:40;;;;;;;8.87;8.00;;;;;20.80;102229.00;;;;2067061;28;20341;-66
2022/01/25 02:01:42;;;;;;;8.07;7.38;;;;;20.80;102231.00;;;;2068349;28;20216;-66
2022/01/25 02:02:42;;;;;;;8.18;7.45;;;;;20.80;102230.00;;;;2068296;28;20229;-66
2022/01/25 02:03:43;;;;;;;8.40;7.70;;;;;20.80;102238.00;;;;2068038;28;20218;-64
2022/01/25 02:04:43;;;;;;;7.90;7.20;;;;;20.80;102232.00;;;;2068231;28;20214;-64
2022/01/25 02:05:43;;;;;;;8.47;7.80;;;;;20.80;102232.00;;;;2067418;28;20214;-65
2022/01/25 02:06:44;;;;;;;8.97;8.27;;;;;20.70;102233.00;;;;2067328;28;20217;-65
2022/01/25 02:07:44;;;;;;;8.20;7.53;;;;;20.80;102231.00;;;;2067390;28;20252;-65
2022/01/25 02:08:44;;;;;;;8.63;7.83;;;;;20.80;102229.00;;;;2067459;28;20218;-64
2022/01/25 02:09:45;;;;;;;8.20;7.60;;;;;20.80;102232.00;;;;2067127;28;20230;-66
2022/01/25 02:10:45;;;;;;;7.90;7.30;;;;;20.80;102233.00;;;;2059046;28;20215;-66
2022/01/25 02:11:46;;;;;;;8.57;7.87;;;;;20.80;102240.00;;;;2066481;28;20286;-65
2022/01/25 02:12:49;;;;;;;8.53;7.73;;;;;20.70;102241.00;;;;2066960;28;20222;-64
2022/01/25 02:13:50;;;;;;;7.72;6.97;;;;;20.70;102241.00;;;;2066523;28;20277;-66
2022/01/25 02:14:51;;;;;;;8.40;7.80;;;;;20.70;102239.00;;;;2066959;28;20800;-65
2022/01/25 02:15:54;;;;;;;8.48;7.70;;;;;20.70;102228.00;;;;2066363;28;20469;-66
2022/01/25 02:17:04;;;;;;;9.20;8.30;;;;;20.80;102223.00;;;;2060451;28;20219;-66
2022/01/25 02:23:21;;;;;;;9.00;8.10;;;;;20.70;102230.00;;;;2066907;28;20225;-66
2022/01/25 02:24:22;;;;;;;8.07;7.43;;;;;20.70;102223.00;;;;2069950;28;20217;-66
2022/01/25 02:25:22;;;;;;;8.00;7.30;;;;;20.70;102228.00;;;;2073061;28;20245;-66
2022/01/25 02:26:23;;;;;;;9.27;8.57;;;;;20.70;102230.00;;;;2066306;28;20218;-66
2022/01/25 02:27:23;;;;;;;8.97;8.27;;;;;20.70;102216.00;;;;2067955;28;20213;-65
2022/01/25 02:28:25;;;;;;;8.60;7.90;;;;;20.70;102225.00;;;;2068043;28;20210;-65
2022/01/25 02:29:25;;;;;;;7.90;7.20;;;;;20.70;102215.00;;;;2067203;28;20222;-66
2022/01/25 02:30:26;;;;;;;8.37;7.67;;;;;20.70;102217.00;;;;2066884;28;20210;-65
2022/01/25 02:31:26;;;;;;;8.60;7.90;;;;;20.70;102214.00;;;;2066748;28;20615;-66
2022/01/25 02:32:26;;;;;;;8.27;7.50;;;;;20.60;102215.00;;;;2066758;28;20370;-66
2022/01/25 02:33:27;;;;;;;7.53;6.90;;;;;20.70;102212.00;;;;2067020;28;20705;-66
2022/01/25 02:34:27;;;;;;;8.10;7.40;;;;;20.60;102208.00;;;;2065747;28;20211;-66
2022/01/25 02:35:27;;;;;;;8.50;7.80;;;;;20.60;102205.00;;;;2066793;28;20207;-66
2022/01/25 02:36:28;;;;;;;8.00;7.30;;;;;20.60;102211.00;;;;2067577;28;20218;-65
2022/01/25 02:37:28;;;;;;;8.63;7.83;;;;;20.60;102211.00;;;;2067592;28;20309;-66
2022/01/25 02:38:29;;;;;;;9.47;8.50;;;;;20.60;102204.00;;;;2067029;28;20206;-66
2022/01/25 02:39:30;;;;;;;8.73;7.97;;;;;20.60;102211.00;;;;2062396;28;20216;-66
2022/01/25 02:40:30;;;;;;;9.13;8.33;;;;;20.60;102208.00;;;;2066866;28;20206;-66
2022/01/25 02:41:31;;;;;;;8.70;7.90;;;;;20.60;102212.00;;;;2066623;28;20700;-66
2022/01/25 02:42:31;;;;;;;8.80;8.10;;;;;20.60;102209.00;;;;2066582;28;20202;-66
2022/01/25 02:43:34;;;;;;;7.43;6.73;;;;;20.60;102207.00;;;;2067116;28;20211;-66
2022/01/25 02:44:36;;;;;;;8.05;7.22;;;;;20.60;102215.00;;;;2067704;28;20617;-66
2022/01/25 02:45:37;;;;;;;8.00;7.20;;;;;20.60;102218.00;;;;2067705;28;20209;-66
2022/01/25 02:49:01;;;;;;;8.75;7.95;;;;;20.60;102218.00;;;;2067571;28;20670;-66
2022/01/25 02:50:02;;;;;;;7.95;7.25;;;;;20.60;102224.00;;;;2067302;28;20365;-66
2022/01/25 02:51:03;;;;;;;9.30;8.50;;;;;20.60;102220.00;;;;2066930;28;20222;-66
2022/01/25 02:52:04;;;;;;;9.30;8.50;;;;;20.60;102219.00;;;;2067173;28;20305;-66
2022/01/25 02:53:04;;;;;;;9.15;8.18;;;;;20.60;102218.00;;;;2067040;28;20210;-66
2022/01/25 02:54:04;;;;;;;8.70;7.90;;;;;20.60;102219.00;;;;2066693;28;20218;-66
2022/01/25 02:55:05;;;;;;;8.60;7.80;;;;;20.60;102215.00;;;;2066852;28;20231;-66
2022/01/25 02:56:05;;;;;;;8.70;7.90;;;;;20.60;102220.00;;;;2066894;28;20694;-66
2022/01/25 02:57:06;;;;;;;8.10;7.40;;;;;20.60;102217.00;;;;2067388;28;20226;-65
2022/01/25 02:58:07;;;;;;;8.50;7.70;;;;;20.60;102219.00;;;;2067688;28;20215;-65
2022/01/25 02:59:08;;;;;;;9.15;8.35;;;;;20.60;102212.00;;;;2067401;28;20217;-65
2022/01/25 03:00:08;;;;;;;9.03;8.17;;;;;20.60;102214.00;;;;2067069;28;20237;-66
2022/01/25 03:01:09;;;;;;;9.50;8.80;;;;;20.60;102211.00;;;;2066359;28;20686;-66
2022/01/25 03:02:09;;;;;;;9.17;8.40;;;;;20.60;102212.00;;;;2066549;28;20997;-65
2022/01/25 03:03:09;;;;;;;8.40;7.70;;;;;20.60;102203.00;;;;2065880;28;20246;-66
2022/01/25 03:04:10;;;;;;;9.40;8.53;;;;;20.60;102204.00;;;;2065861;28;20222;-66
2022/01/25 03:05:10;;;;;;;9.23;8.33;;;;;20.60;102212.00;;;;2066857;28;20284;-66
2022/01/25 03:06:15;;;;;;;8.10;7.43;;;;;20.60;102204.00;;;;2066745;28;20698;-66
2022/01/25 03:07:15;;;;;;;9.80;8.98;;;;;20.50;102204.00;;;;2066628;28;20211;-66
2022/01/25 03:08:16;;;;;;;8.40;7.70;;;;;20.60;102203.00;;;;2067254;28;20634;-66
2022/01/25 03:09:16;;;;;;;9.53;8.63;;;;;20.50;102199.00;;;;2067457;28;20288;-66
2022/01/25 03:10:16;;;;;;;8.60;7.87;;;;;20.60;102197.00;;;;2067625;28;20298;-66
2022/01/25 03:11:18;;;;;;;9.60;8.80;;;;;20.50;102201.00;;;;2067780;28;20638;-66
2022/01/25 03:12:30;;;;;;;8.95;8.23;;;;;20.60;102204.00;;;;2067385;28;20210;-66
2022/01/25 03:13:36;;;;;;;11.07;7.75;;;;;20.50;102201.00;;;;2066173;28;20226;-66
2022/01/25 03:14:47;;;;;;;10.23;8.48;;;;;20.50;102202.00;;;;2067309;28;20207;-66
2022/01/25 03:17:11;;;;;;;9.73;8.82;;;;;20.50;102200.00;;;;2067186;28;20295;-66
2022/01/25 03:18:24;;;;;;;9.43;8.63;;;;;20.50;102200.00;;;;2067328;28;20561;-65
2022/01/25 03:20:47;;;;;;;9.63;8.73;;;;;20.50;102204.00;;;;2062976;28;20584;-66
2022/01/25 03:21:48;;;;;;;10.50;9.30;;;;;20.50;102207.00;;;;2067571;28;20237;-66
2022/01/25 03:23:55;;;;;;;8.73;7.90;;;;;20.50;102201.00;;;;2067787;28;20229;-66
2022/01/25 03:24:55;;;;;;;9.50;8.70;;;;;20.50;102203.00;;;;2067263;28;20241;-64
2022/01/25 03:25:55;;;;;;;9.80;8.80;;;;;20.50;102207.00;;;;2067034;28;20456;-64
2022/01/25 03:26:56;;;;;;;9.80;9.00;;;;;20.50;102207.00;;;;2066945;28;20217;-64
2022/01/25 03:27:57;;;;;;;9.53;8.77;;;;;20.50;102207.00;;;;2066827;28;20298;-65
2022/01/25 03:28:58;;;;;;;10.85;8.73;;;;;20.50;102199.00;;;;2067396;28;20207;-65
2022/01/25 03:29:58;;;;;;;9.63;8.83;;;;;20.50;102210.00;;;;2067190;28;20306;-65
2022/01/25 03:30:58;;;;;;;8.60;7.80;;;;;20.50;102204.00;;;;2066525;28;20210;-66
2022/01/25 03:31:59;;;;;;;9.00;8.20;;;;;20.50;102212.00;;;;2067405;28;20241;-65
2022/01/25 03:32:59;;;;;;;10.03;9.10;;;;;20.50;102207.00;;;;2066693;28;20210;-66
2022/01/25 03:33:59;;;;;;;8.93;8.10;;;;;20.50;102206.00;;;;2066600;28;20214;-65
2022/01/25 03:35:00;;;;;;;8.73;8.00;;;;;20.50;102207.00;;;;2066734;28;20225;-66
2022/01/25 03:36:00;;;;;;;8.00;7.20;;;;;20.40;102206.00;;;;2066987;28;20265;-66
2022/01/25 03:37:00;;;;;;;10.20;9.20;;;;;20.50;102204.00;;;;2067024;28;20309;-66
2022/01/25 03:38:00;;;;;;;9.73;8.80;;;;;20.50;102202.00;;;;2067625;28;20214;-66
2022/01/25 03:39:02;;;;;;;10.20;9.20;;;;;20.40;102198.00;;;;2067850;28;20211;-66
2022/01/25 03:40:02;;;;;;;9.05;8.25;;;;;20.40;102196.00;;;;2067750;28;20303;-66
2022/01/25 03:41:04;;;;;;;9.87;8.93;;;;;20.40;102201.00;;;;2067571;28;20210;-65
2022/01/25 03:42:08;;;;;;;9.68;8.80;;;;;20.40;102202.00;;;;2067108;28;20701;-66
2022/01/25 03:43:09;;;;;;;9.75;8.75;;;;;20.40;102198.00;;;;2066854;28;20303;-66
2022/01/25 03:44:10;;;;;;;9.52;8.82;;;;;20.40;102202.00;;;;2066194;28;20203;-66
2022/01/25 03:45:17;;;;;;;9.77;8.97;;;;;20.40;102196.00;;;;2066720;28;20633;-66
2022/01/25 03:46:28;;;;;;;10.02;9.13;;;;;20.40;102198.00;;;;2067761;28;20570;-66
2022/01/25 03:47:42;;;;;;;9.75;8.85;;;;;20.40;102187.00;;;;2065937;28;20218;-64
2022/01/25 03:50:02;;;;;;;9.32;8.52;;;;;20.40;102197.00;;;;2062399;28;20223;-66
2022/01/25 03:51:02;;;;;;;9.57;8.80;;;;;20.40;102191.00;;;;2067188;28;20695;-65
2022/01/25 03:52:06;;;;;;;9.87;8.87;;;;;20.40;102184.00;;;;2067837;28;20210;-66
2022/01/25 03:53:07;;;;;;;9.55;8.80;;;;;20.40;102184.00;;;;2067681;28;20215;-65
2022/01/25 03:54:07;;;;;;;10.32;9.43;;;;;20.40;102188.00;;;;2067747;28;20206;-65
2022/01/25 03:55:08;;;;;;;10.30;9.40;;;;;20.40;102184.00;;;;2066952;28;20698;-66
2022/01/25 03:56:08;;;;;;;10.77;9.77;;;;;20.40;102187.00;;;;2066984;28;20748;-66
2022/01/25 03:57:08;;;;;;;9.33;8.53;;;;;20.40;102188.00;;;;2066909;28;20206;-66
2022/01/25 03:58:09;;;;;;;11.03;10.13;;;;;20.40;102182.00;;;;2066149;28;20199;-65
2022/01/25 03:59:09;;;;;;;10.27;9.20;;;;;20.40;102174.00;;;;2066742;28;20277;-65
2022/01/25 04:00:11;;;;;;;10.23;8.80;;;;;20.40;102184.00;;;;2067627;28;20207;-66
2022/01/25 04:01:11;;;;;;;9.88;9.05;;;;;20.40;102178.00;;;;2066956;28;20212;-65
2022/01/25 04:02:12;;;;;;;10.37;9.47;;;;;20.40;102189.00;;;;2068208;28;20580;-65
2022/01/25 04:04:41;;;;;;;10.32;9.43;;;;;20.40;102191.00;;;;2056648;28;20211;-65
2022/01/25 04:06:47;;;;;;;9.97;9.13;;;;;20.40;102187.00;;;;2068533;28;20215;-66
2022/01/25 04:07:50;;;;;;;10.32;9.43;;;;;20.40;102190.00;;;;2065225;28;20650;-65
2022/01/25 04:08:50;;;;;;;10.25;9.35;;;;;20.30;102187.00;;;;2068148;28;20605;-65
2022/01/25 04:09:51;;;;;;;12.00;9.33;;;;;20.30;102187.00;;;;2068240;28;20259;-66
2022/01/25 04:10:51;;;;;;;10.13;9.33;;;;;20.30;102183.00;;;;2068532;28;20223;-66
2022/01/25 04:11:51;;;;;;;9.80;9.00;;;;;20.30;102188.00;;;;2068397;28;20230;-65
2022/01/25 04:12:52;;;;;;;10.97;9.80;;;;;20.30;102186.00;;;;2068005;28;20221;-65
2022/01/25 04:13:54;;;;;;;10.27;9.37;;;;;20.30;102190.00;;;;2059975;28;20223;-66
2022/01/25 04:14:55;;;;;;;10.50;9.60;;;;;20.30;102188.00;;;;2067515;28;20240;-66
2022/01/25 04:15:58;;;;;;;10.00;9.10;;;;;20.30;102190.00;;;;2067696;28;20230;-66
2022/01/25 04:17:03;;;;;;;10.55;9.70;;;;;20.30;102188.00;;;;2066756;28;20210;-65
2022/01/25 04:19:27;;;;;;;11.07;9.98;;;;;20.30;102185.00;;;;2068703;28;20608;-66
2022/01/25 04:20:34;;;;;;;10.40;9.50;;;;;20.30;102191.00;;;;2068479;28;20354;-66
2022/01/25 04:25:14;;;;;;;10.40;9.43;;;;;20.30;102176.00;;;;2067660;28;20233;-65
2022/01/25 04:26:14;;;;;;;9.40;8.60;;;;;20.30;102178.00;;;;2067650;28;20732;-65
2022/01/25 04:27:15;;;;;;;10.27;9.37;;;;;20.30;102175.00;;;;2067705;28;20238;-66
2022/01/25 04:28:15;;;;;;;10.87;9.90;;;;;20.30;102170.00;;;;2067672;28;20213;-66
2022/01/25 04:29:15;;;;;;;11.20;10.17;;;;;20.30;102175.00;;;;2067839;28;20203;-65
2022/01/25 04:30:16;;;;;;;10.73;9.83;;;;;20.30;102173.00;;;;2068387;28;20207;-65
2022/01/25 04:31:19;;;;;;;10.53;9.63;;;;;20.30;102166.00;;;;2068407;28;20214;-66
2022/01/25 04:32:19;;;;;;;11.32;10.43;;;;;20.30;102167.00;;;;2068663;28;20213;-65
2022/01/25 04:33:25;;;;;;;11.10;10.20;;;;;20.30;102170.00;;;;2068349;28;20288;-66
2022/01/25 04:34:39;;;;;;;10.50;9.60;;;;;20.30;102167.00;;;;2066749;28;20461;-66
2022/01/25 04:35:54;;;;;;;11.15;9.95;;;;;20.30;102171.00;;;;2064054;28;20693;-66
2022/01/25 04:49:06;;;;;;;12.95;10.82;;;;;20.20;102168.00;;;;2064852;28;20217;-66
2022/01/25 04:50:09;;;;;;;12.35;11.25;;;;;20.20;102168.00;;;;2064430;28;20218;-66
2022/01/25 04:52:33;;;;;;;10.68;9.77;;;;;20.20;102173.00;;;;2067526;28;20219;-65
2022/01/25 04:53:45;;;;;;;11.10;10.10;;;;;20.20;102168.00;;;;2068500;28;20206;-65
2022/01/25 04:55:13;;;;;;;11.82;10.55;;;;;20.20;102170.00;;;;2067684;28;20218;-65
2022/01/25 04:56:41;;;;;;;10.88;9.88;;;;;20.20;102166.00;;;;2066421;28;20294;-65
2022/01/25 04:58:43;;;;;;;10.20;9.40;;;;;20.20;102180.00;;;;2067919;28;20689;-65
2022/01/25 04:59:57;;;;;;;11.88;10.45;;;;;20.20;102174.00;;;;2068719;28;20298;-65
2022/01/25 05:00:58;;;;;;;11.50;10.55;;;;;20.20;102175.00;;;;2065003;28;20366;-65
2022/01/25 05:02:05;;;;;;;10.27;9.47;;;;;20.20;102174.00;;;;2068074;28;20226;-65
2022/01/25 05:03:15;;;;;;;11.43;10.35;;;;;20.20;102169.00;;;;2068525;28;20219;-65
2022/01/25 05:04:24;;;;;;;12.02;10.70;;;;;20.20;102172.00;;;;2068731;28;20213;-65
2022/01/25 05:06:28;;;;;;;10.55;9.65;;;;;20.20;102174.00;;;;2067787;28;20241;-65
2022/01/25 05:08:49;;;;;;;11.40;10.43;;;;;20.20;102179.00;;;;2068512;28;20690;-65
2022/01/25 05:09:51;;;;;;;12.52;11.38;;;;;20.20;102177.00;;;;2067889;28;20245;-65
2022/01/25 05:11:02;;;;;;;11.48;10.48;;;;;20.20;102170.00;;;;2067471;28;20737;-65
2022/01/25 05:12:04;;;;;;;11.27;10.27;;;;;20.20;102180.00;;;;2068191;28;20231;-65
2022/01/25 05:14:19;;;;;;;11.43;10.38;;;;;20.20;102180.00;;;;2068402;28;20215;-65
2022/01/25 05:16:01;;;;;;;12.15;11.15;;;;;20.10;102178.00;;;;2067142;28;20217;-66
2022/01/25 05:17:01;;;;;;;10.57;9.57;;;;;20.20;102180.00;;;;2066419;28;20215;-65
2022/01/25 05:22:55;;;;;;;10.55;9.60;;;;;20.10;102172.00;;;;2064083;28;20815;-66
2022/01/25 05:23:56;;;;;;;11.23;10.13;;;;;20.10;102177.00;;;;2067086;28;20210;-65
2022/01/25 05:24:56;;;;;;;11.57;10.57;;;;;20.10;102178.00;;;;2067246;28;20294;-66
2022/01/25 05:25:56;;;;;;;11.27;10.37;;;;;20.10;102178.00;;;;2067705;28;20223;-65
2022/01/25 05:26:57;;;;;;;11.10;10.10;;;;;20.10;102183.00;;;;2067651;28;20265;-65
2022/01/25 05:27:57;;;;;;;11.60;10.57;;;;;20.10;102173.00;;;;2059372;28;20254;-65
2022/01/25 05:28:58;;;;;;;11.43;10.40;;;;;20.10;102181.00;;;;2067824;28;20215;-66
2022/01/25 05:29:59;;;;;;;11.48;10.48;;;;;20.10;102162.00;;;;2068621;28;20229;-66
2022/01/25 05:30:59;;;;;;;11.73;10.73;;;;;20.10;102166.00;;;;2067044;28;20672;-66
2022/01/25 05:31:59;;;;;;;13.03;10.83;;;;;20.10;102178.00;;;;2067126;28;20625;-66
2022/01/25 05:33:00;;;;;;;11.60;10.60;;;;;20.10;102177.00;;;;2067785;28;20573;-66
2022/01/25 05:34:00;;;;;;;12.30;11.10;;;;;20.10;102175.00;;;;2067647;28;20274;-65
2022/01/25 05:35:01;;;;;;;12.00;10.90;;;;;20.10;102171.00;;;;2067815;28;20219;-65
2022/01/25 05:36:01;;;;;;;11.00;10.00;;;;;20.10;102183.00;;;;2068583;28;20222;-65
2022/01/25 05:37:03;;;;;;;11.03;10.13;;;;;20.10;102170.00;;;;2068429;28;20461;-66
2022/01/25 05:38:03;;;;;;;12.68;11.50;;;;;20.10;102182.00;;;;2068421;28;20313;-66
2022/01/25 05:39:16;;;;;;;12.07;10.77;;;;;20.10;102182.00;;;;2068096;28;20214;-66
2022/01/25 05:40:27;;;;;;;12.18;10.77;;;;;20.10;102182.00;;;;2067176;28;20211;-65
2022/01/25 05:41:31;;;;;;;11.70;10.60;;;;;20.10;102172.00;;;;2064519;28;20846;-65
2022/01/25 05:44:12;;;;;;;11.82;10.80;;;;;20.10;102172.00;;;;2068173;28;20207;-65
2022/01/25 05:46:16;;;;;;;12.00;10.90;;;;;20.10;102167.00;;;;2067590;28;20674;-66
2022/01/25 05:47:17;;;;;;;13.18;11.23;;;;;20.10;102176.00;;;;2063762;28;20226;-65
2022/01/25 05:48:17;;;;;;;11.87;10.77;;;;;20.10;102169.00;;;;2067783;28;20237;-66
2022/01/25 05:49:18;;;;;;;12.00;10.90;;;;;20.10;102163.00;;;;2068346;28;20565;-65
2022/01/25 05:50:18;;;;;;;11.97;10.97;;;;;20.10;102164.00;;;;2068070;28;20693;-66
2022/01/25 05:51:18;;;;;;;13.97;12.50;;;;;20.10;102160.00;;;;2067541;28;20214;-66
2022/01/25 05:52:19;;;;;;;11.63;10.70;;;;;20.00;102166.00;;;;2065315;28;20296;-65
2022/01/25 05:53:19;;;;;;;12.77;11.57;;;;;20.00;102163.00;;;;2067511;28;20260;-65
2022/01/25 05:54:19;;;;;;;11.80;10.70;;;;;20.00;102167.00;;;;2067264;28;20211;-66
2022/01/25 05:55:20;;;;;;;12.27;11.17;;;;;20.00;102162.00;;;;2071158;28;20263;-65
2022/01/25 05:56:20;;;;;;;12.50;11.40;;;;;20.00;102164.00;;;;2067550;28;20210;-66
2022/01/25 05:57:21;;;;;;;12.53;11.43;;;;;20.00;102159.00;;;;2066626;28;20248;-65
2022/01/25 05:58:21;;;;;;;11.40;10.40;;;;;20.00;102155.00;;;;2066770;28;20222;-65
2022/01/25 05:59:21;;;;;;;12.00;10.90;;;;;20.00;102161.00;;;;2067830;28;20211;-64
2022/01/25 06:00:22;;;;;;;12.53;11.43;;;;;20.00;102167.00;;;;2068211;28;20235;-66
2022/01/25 06:01:22;;;;;;;12.20;11.20;;;;;20.00;102161.00;;;;2068163;28;20211;-65
2022/01/25 06:02:25;;;;;;;11.90;10.90;;;;;20.00;102156.00;;;;2068052;28;20212;-65
2022/01/25 06:03:26;;;;;;;12.00;10.90;;;;;20.00;102162.00;;;;2067618;28;20201;-66
2022/01/25 06:04:27;;;;;;;13.40;12.10;;;;;20.00;102163.00;;;;2067500;28;20264;-65
2022/01/25 06:05:28;;;;;;;11.57;10.38;;;;;20.00;102160.00;;;;2066822;28;20206;-66
2022/01/25 06:06:29;;;;;;;11.85;10.75;;;;;20.00;102163.00;;;;2058640;28;20219;-66
2022/01/25 06:07:30;;;;;;;13.60;12.30;;;;;20.10;102170.00;;;;2063123;28;20238;-66
2022/01/25 06:08:30;;;;;;;12.40;11.17;;;;;20.10;102171.00;;;;2067242;28;20720;-65
2022/01/25 06:09:30;;;;;;;12.80;11.53;;;;;20.10;102170.00;;;;2067299;28;20218;-66
2022/01/25 06:10:31;;;;;;;11.83;10.73;;;;;20.10;102165.00;;;;2067180;28;20702;-66
2022/01/25 06:11:33;;;;;;;12.50;11.23;;;;;20.10;102162.00;;;;2068032;28;20203;-66
2022/01/25 06:12:34;;;;;;;11.57;10.57;;;;;20.10;102164.00;;;;2067976;28;20461;-66
2022/01/25 06:13:34;;;;;;;11.50;10.50;;;;;20.10;102162.00;;;;2067986;28;20215;-66
2022/01/25 06:14:34;;;;;;;12.70;11.60;;;;;20.10;102147.00;;;;2068274;28;20217;-66
2022/01/25 06:15:35;;;;;;;12.47;11.33;;;;;20.10;102168.00;;;;2066938;28;20215;-66
2022/01/25 06:16:35;;;;;;;12.90;11.60;;;;;20.10;102165.00;;;;2066580;28;20208;-66
2022/01/25 06:17:35;;;;;;;13.00;11.80;;;;;20.10;102172.00;;;;2066443;28;20210;-66
2022/01/25 06:18:36;;;;;;;12.17;10.93;;;;;20.10;102171.00;;;;2067379;28;20277;-66
2022/01/25 06:19:36;;;;;;;12.57;11.37;;;;;20.20;102167.00;;;;2067683;28;20201;-66
2022/01/25 06:20:36;;;;;;;11.77;10.63;;;;;20.20;102176.00;;;;2067602;28;20778;-66
2022/01/25 06:21:37;;;;;;;12.67;11.57;;;;;20.20;102174.00;;;;2068217;28;20207;-66
2022/01/25 06:22:37;;;;;;;13.90;10.07;;;;;20.20;102170.00;;;;2068079;28;20210;-66
2022/01/25 06:23:37;;;;;;;11.60;10.60;;;;;20.20;102178.00;;;;2067767;28;20615;-66
2022/01/25 06:24:38;;;;;;;11.67;10.67;;;;;20.20;102174.00;;;;2062781;28;20337;-66
2022/01/25 06:25:38;;;;;;;12.17;11.13;;;;;20.20;102165.00;;;;2066691;28;20278;-66
2022/01/25 06:26:39;;;;;;;12.00;10.90;;;;;20.20;102164.00;;;;2067394;28;20246;-65
2022/01/25 06:27:40;;;;;;;12.43;11.23;;;;;20.20;102172.00;;;;2066432;28;20292;-66
2022/01/25 06:28:41;;;;;;;13.70;11.25;;;;;20.20;102167.00;;;;2059980;28;20233;-66
2022/01/25 06:29:41;;;;;;;12.00;10.90;;;;;20.20;102169.00;;;;2065678;28;20230;-66
2022/01/25 06:30:41;;;;;;;11.90;10.80;;;;;20.20;102167.00;;;;2067487;28;20222;-66
2022/01/25 06:31:42;;;;;;;11.03;10.03;;;;;20.20;102173.00;;;;2068101;28;20694;-66
2022/01/25 06:32:43;;;;;;;11.93;10.80;;;;;20.20;102167.00;;;;2066493;28;20698;-65
2022/01/25 06:33:45;;;;;;;11.07;10.00;;;;;20.30;102162.00;;;;2065355;28;20214;-66
2022/01/25 06:34:45;;;;;;;10.05;9.05;;;;;20.20;102166.00;;;;2066571;28;20670;-67
2022/01/25 06:35:46;;;;;;;10.73;9.57;;;;;20.10;102168.00;;;;2066639;28;20229;-68
2022/01/25 06:36:47;;;;;;;10.50;9.40;;;;;20.10;102172.00;;;;2067577;28;20309;-67
2022/01/25 06:37:47;;;;;;;11.37;10.37;;;;;20.20;102167.00;;;;2066945;28;20648;-69
2022/01/25 06:38:48;;;;;;;13.07;11.20;;;;;20.30;102167.00;;;;2066391;28;20222;-68
2022/01/25 06:39:49;;;;;;;11.30;10.27;;;;;20.30;102163.00;;;;2066969;28;20210;-67
2022/01/25 06:40:49;;;;;;;12.65;10.05;;;;;20.20;102165.00;;;;2062931;28;20298;-66
2022/01/25 06:41:50;;;;;;;11.40;9.63;;;;;20.30;102166.00;;;;2065164;28;20214;-66
2022/01/25 06:42:50;;;;;;;12.87;8.80;;;;;20.30;102172.00;;;;2066622;28;20230;-67
2022/01/25 06:43:51;;;;;;;10.17;9.17;;;;;20.30;102170.00;;;;2066460;28;20223;-66
2022/01/25 06:44:55;;;;;;;11.30;9.37;;;;;20.30;102169.00;;;;2067278;28;20638;-66
2022/01/25 06:46:03;;;;;;;11.95;9.80;;;;;20.30;102171.00;;;;2067277;28;20214;-65